Time;durP1;ratioP1;P1;durP2;ratioP2;P2;SDS_P1;SDS_P2;PMS_P1;PMS_P2;Temp;Humidity;BMP_temperature;BMP_pressure;BME280_temperature;BME280_humidity;BME280_pressure;Samples;Min_cycle;Max_cycle;Signal;HPM_P1;HPM_P2
2023/05/09 00:00:01;;;;;;;;;;;14.20;99.90;;;;;;5055301;28;19925;-70
2023/05/09 00:02:28;;;;;;;;;;;14.20;99.90;;;;;;5054754;28;19948;-71
2023/05/09 00:04:54;;;;;;;;;;;14.20;99.90;;;;;;5055678;28;19925;-71
2023/05/09 00:07:19;;;;;;;;;;;14.20;99.90;;;;;;5037232;28;19924;-71
2023/05/09 00:09:45;;;;;;;;;;;14.10;99.90;;;;;;5072255;28;20024;-70
2023/05/09 00:12:11;;;;;;;;;;;14.10;99.90;;;;;;5055126;28;19924;-71
2023/05/09 00:14:38;;;;;;;;;;;14.10;99.90;;;;;;5072672;28;20371;-71
2023/05/09 00:17:04;;;;;;;;;;;14.00;99.90;;;;;;5065733;28;20011;-70
2023/05/09 00:19:29;;;;;;;;;;;14.00;99.90;;;;;;5072854;28;20023;-70
2023/05/09 00:21:58;;;;;;;;;;;14.00;99.90;;;;;;5073076;28;19947;-70
2023/05/09 00:24:24;;;;;;;;;;;14.00;99.90;;;;;;5063829;28;19925;-71
2023/05/09 00:26:49;;;;;;;;;;;14.00;99.90;;;;;;5072810;28;19929;-71
2023/05/09 00:29:15;;;;;;;;;;;14.00;99.90;;;;;;5072343;28;19928;-71
2023/05/09 00:31:41;;;;;;;;;;;14.00;99.90;;;;;;5072038;28;19932;-72
2023/05/09 00:34:06;;;;;;;;;;;13.90;99.90;;;;;;5069265;28;19931;-71
2023/05/09 00:36:32;;;;;;;;;;;14.00;99.90;;;;;;5054473;28;19929;-71
2023/05/09 00:38:57;;;;;;;;;;;14.00;99.90;;;;;;5054038;28;19924;-71
2023/05/09 00:41:23;;;;;;;;;;;14.00;99.90;;;;;;5053241;28;19924;-71
2023/05/09 00:43:49;;;;;;;;;;;14.00;99.90;;;;;;5067187;28;19982;-70
2023/05/09 00:46:14;;;;;;;;;;;14.00;99.90;;;;;;5068784;28;20016;-70
2023/05/09 00:48:40;;;;;;;;;;;14.00;99.90;;;;;;5072075;28;19924;-70
2023/05/09 00:51:06;;;;;;;;;;;13.90;99.90;;;;;;5053389;28;20336;-70
2023/05/09 00:53:32;;;;;;;;;;;14.00;99.90;;;;;;5072275;28;19931;-70
2023/05/09 00:55:58;;;;;;;;;;;14.00;99.90;;;;;;5071976;28;19931;-71
2023/05/09 00:58:28;;;;;;;;;;;14.00;99.90;;;;;;5071431;28;19935;-71
2023/05/09 01:00:54;;;;;;;;;;;13.90;99.90;;;;;;5067477;28;19924;-70
2023/05/09 01:03:19;;;;;;;;;;;13.90;99.90;;;;;;5071373;28;19978;-70
2023/05/09 01:05:51;;;;;;;;;;;13.90;99.90;;;;;;5072219;28;19925;-70
2023/05/09 01:08:25;;;;;;;;;;;13.90;99.90;;;;;;5072326;28;19924;-70
2023/05/09 01:11:04;;;;;;;;;;;13.90;99.90;;;;;;5070887;28;19932;-71
2023/05/09 01:13:32;;;;;;;;;;;13.90;99.90;;;;;;5069750;28;19970;-71
2023/05/09 01:16:16;;;;;;;;;;;13.90;99.90;;;;;;5071658;28;19936;-70
2023/05/09 01:18:46;;;;;;;;;;;13.90;99.90;;;;;;5071255;28;19964;-71
2023/05/09 01:21:22;;;;;;;;;;;13.90;99.90;;;;;;5071967;28;19931;-71
2023/05/09 01:24:07;;;;;;;;;;;14.00;99.90;;;;;;5072611;28;19978;-71
2023/05/09 01:26:44;;;;;;;;;;;13.90;99.90;;;;;;5064169;28;19924;-70
2023/05/09 01:29:21;;;;;;;;;;;13.90;99.90;;;;;;5070171;28;19946;-71
2023/05/09 01:31:47;;;;;;;;;;;13.90;99.90;;;;;;5070607;28;19932;-71
2023/05/09 01:34:14;;;;;;;;;;;13.90;99.90;;;;;;5051723;28;19932;-71
2023/05/09 01:36:41;;;;;;;;;;;13.90;99.90;;;;;;5067923;28;19928;-70
2023/05/09 01:39:09;;;;;;;;;;;13.90;99.90;;;;;;5067605;28;19931;-70
2023/05/09 01:41:36;;;;;;;;;;;14.00;99.90;;;;;;5070377;28;19932;-70
2023/05/09 01:44:03;;;;;;;;;;;13.90;99.90;;;;;;5068886;28;19930;-70
2023/05/09 01:46:29;;;;;;;;;;;13.90;99.90;;;;;;5064896;28;20378;-70
2023/05/09 01:48:56;;;;;;;;;;;13.90;99.90;;;;;;5052939;28;20011;-70
2023/05/09 01:51:22;;;;;;;;;;;13.80;99.90;;;;;;5069059;28;20012;-70
2023/05/09 01:53:49;;;;;;;;;;;13.90;99.90;;;;;;5073209;28;19925;-70
2023/05/09 01:56:15;;;;;;;;;;;13.90;99.90;;;;;;5076199;28;19924;-69
2023/05/09 01:58:41;;;;;;;;;;;13.90;99.90;;;;;;5071757;28;20361;-70
2023/05/09 02:01:07;;;;;;;;;;;13.90;99.90;;;;;;5064418;28;19924;-69
2023/05/09 02:03:33;;;;;;;;;;;13.90;99.90;;;;;;5057516;28;19931;-69
2023/05/09 02:05:59;;;;;;;;;;;13.90;99.90;;;;;;5073311;28;19924;-70
2023/05/09 02:08:25;;;;;;;;;;;13.90;99.90;;;;;;5074802;28;20396;-69
2023/05/09 02:10:51;;;;;;;;;;;13.90;99.90;;;;;;5072725;28;19978;-69
2023/05/09 02:13:17;;;;;;;;;;;13.90;99.90;;;;;;5056888;28;20365;-70
2023/05/09 02:15:43;;;;;;;;;;;13.90;99.90;;;;;;5073985;28;19931;-69
2023/05/09 02:18:09;;;;;;;;;;;13.90;99.90;;;;;;5074658;28;19924;-70
2023/05/09 02:20:34;;;;;;;;;;;13.90;99.90;;;;;;5073795;28;19947;-70
2023/05/09 02:23:00;;;;;;;;;;;13.90;99.90;;;;;;5056779;28;20013;-69
2023/05/09 02:25:26;;;;;;;;;;;14.00;99.90;;;;;;5074780;28;19924;-70
2023/05/09 02:27:54;;;;;;;;;;;14.00;99.90;;;;;;5054012;28;20393;-70
2023/05/09 02:30:23;;;;;;;;;;;14.00;99.90;;;;;;5039142;28;19924;-70
2023/05/09 02:32:52;;;;;;;;;;;14.00;99.90;;;;;;5054576;28;20358;-70
2023/05/09 02:35:18;;;;;;;;;;;14.00;99.90;;;;;;5072489;28;20089;-70
2023/05/09 02:37:44;;;;;;;;;;;14.00;99.90;;;;;;5067496;28;19932;-70
2023/05/09 02:40:10;;;;;;;;;;;14.00;99.90;;;;;;5051300;28;19931;-69
2023/05/09 02:42:36;;;;;;;;;;;14.10;99.90;;;;;;5074696;28;20011;-71
2023/05/09 02:45:01;;;;;;;;;;;14.10;99.90;;;;;;5044900;28;19925;-69
2023/05/09 02:47:27;;;;;;;;;;;14.10;99.90;;;;;;5072014;28;20401;-71
2023/05/09 02:49:52;;;;;;;;;;;14.10;99.90;;;;;;5054620;28;20346;-70
2023/05/09 02:52:18;;;;;;;;;;;14.10;99.90;;;;;;5072846;28;19970;-70
2023/05/09 02:54:44;;;;;;;;;;;14.10;99.90;;;;;;5054512;28;20359;-70
2023/05/09 02:57:09;;;;;;;;;;;14.10;99.90;;;;;;5054856;28;19932;-70
2023/05/09 02:59:35;;;;;;;;;;;14.10;99.90;;;;;;5053967;28;20041;-70
2023/05/09 03:02:00;;;;;;;;;;;14.10;99.90;;;;;;5072417;28;19930;-70
2023/05/09 03:04:26;;;;;;;;;;;14.10;99.90;;;;;;5064349;28;19925;-71
2023/05/09 03:06:52;;;;;;;;;;;14.10;99.90;;;;;;5054676;28;20406;-70
2023/05/09 03:09:18;;;;;;;;;;;14.10;99.90;;;;;;5070752;28;19932;-70
2023/05/09 03:11:43;;;;;;;;;;;14.10;99.90;;;;;;5054841;28;20294;-70
2023/05/09 03:14:10;;;;;;;;;;;14.10;99.90;;;;;;5046566;28;19928;-70
2023/05/09 03:16:36;;;;;;;;;;;14.10;99.90;;;;;;5072100;28;19932;-70
2023/05/09 03:19:02;;;;;;;;;;;14.10;99.90;;;;;;5071608;28;19968;-70
2023/05/09 03:21:28;;;;;;;;;;;14.10;99.90;;;;;;5074252;28;19977;-70
2023/05/09 03:23:53;;;;;;;;;;;14.00;99.90;;;;;;5071930;28;19931;-71
2023/05/09 03:26:20;;;;;;;;;;;14.10;99.90;;;;;;5070964;28;19924;-70
2023/05/09 03:28:46;;;;;;;;;;;14.00;99.90;;;;;;5072162;28;19924;-69
2023/05/09 03:31:11;;;;;;;;;;;14.10;99.90;;;;;;5071424;28;20382;-70
2023/05/09 03:33:37;;;;;;;;;;;14.10;99.90;;;;;;5069992;28;19924;-68
2023/05/09 03:36:02;;;;;;;;;;;14.10;99.90;;;;;;5072729;28;20450;-68
2023/05/09 03:38:28;;;;;;;;;;;14.00;99.90;;;;;;5071521;28;19928;-70
2023/05/09 03:40:53;;;;;;;;;;;14.10;99.90;;;;;;5071236;28;19934;-68
2023/05/09 03:43:19;;;;;;;;;;;14.10;99.90;;;;;;5054805;28;19931;-68
2023/05/09 03:45:44;;;;;;;;;;;14.10;99.90;;;;;;5066809;28;20310;-69
2023/05/09 03:48:10;;;;;;;;;;;14.10;99.90;;;;;;5073196;28;19925;-69
2023/05/09 03:50:36;;;;;;;;;;;14.10;99.90;;;;;;5068214;28;19933;-69
2023/05/09 03:53:02;;;;;;;;;;;14.10;99.90;;;;;;5070861;28;19933;-69
2023/05/09 03:55:28;;;;;;;;;;;14.10;99.90;;;;;;5068799;28;19928;-69
2023/05/09 03:57:54;;;;;;;;;;;14.10;99.90;;;;;;5070023;28;19924;-69
2023/05/09 04:00:20;;;;;;;;;;;14.10;99.90;;;;;;5071007;28;19930;-69
2023/05/09 04:02:46;;;;;;;;;;;14.10;99.90;;;;;;5071581;28;19925;-69
2023/05/09 04:05:12;;;;;;;;;;;14.10;99.90;;;;;;5069833;28;20016;-69
2023/05/09 04:07:38;;;;;;;;;;;14.10;99.90;;;;;;5069074;28;20014;-69
2023/05/09 04:10:03;;;;;;;;;;;14.20;99.90;;;;;;5059881;28;19951;-69
2023/05/09 04:12:29;;;;;;;;;;;14.20;99.90;;;;;;5070013;28;19924;-69
2023/05/09 04:14:55;;;;;;;;;;;14.20;99.90;;;;;;5071071;28;21737;-69
2023/05/09 04:17:20;;;;;;;;;;;14.20;99.90;;;;;;5071286;28;20019;-69
2023/05/09 04:19:46;;;;;;;;;;;14.20;99.90;;;;;;5062089;28;19932;-69
2023/05/09 04:22:11;;;;;;;;;;;14.20;99.90;;;;;;5070906;28;19925;-68
2023/05/09 04:24:37;;;;;;;;;;;14.20;99.90;;;;;;5071084;28;19924;-70
2023/05/09 04:27:03;;;;;;;;;;;14.20;99.90;;;;;;5072711;28;19932;-69
2023/05/09 04:29:28;;;;;;;;;;;14.20;99.90;;;;;;5071998;28;20019;-69
2023/05/09 04:31:54;;;;;;;;;;;14.30;99.90;;;;;;5072317;28;19932;-69
2023/05/09 04:34:21;;;;;;;;;;;14.30;99.90;;;;;;5054340;28;20398;-70
2023/05/09 04:36:47;;;;;;;;;;;14.30;99.90;;;;;;5053945;28;19969;-70
2023/05/09 04:39:15;;;;;;;;;;;14.30;99.90;;;;;;5073232;28;19924;-70
2023/05/09 04:41:43;;;;;;;;;;;14.30;99.90;;;;;;5072913;28;19931;-70
2023/05/09 04:44:09;;;;;;;;;;;14.30;99.90;;;;;;5073496;28;19924;-69
2023/05/09 04:46:35;;;;;;;;;;;14.30;99.90;;;;;;5055775;28;19959;-69
2023/05/09 04:49:00;;;;;;;;;;;14.40;99.90;;;;;;5072318;28;19986;-71
2023/05/09 04:51:26;;;;;;;;;;;14.40;99.90;;;;;;5069218;28;19925;-69
2023/05/09 04:53:51;;;;;;;;;;;14.40;99.90;;;;;;5053057;28;20031;-69
2023/05/09 04:56:17;;;;;;;;;;;14.40;99.90;;;;;;5066187;28;19930;-69
2023/05/09 04:58:43;;;;;;;;;;;14.40;99.90;;;;;;5053822;28;19925;-69
2023/05/09 05:01:08;;;;;;;;;;;14.40;99.90;;;;;;5036786;28;19979;-69
2023/05/09 05:03:34;;;;;;;;;;;14.40;99.90;;;;;;5067230;28;20317;-68
2023/05/09 05:05:59;;;;;;;;;;;14.50;99.90;;;;;;5068985;28;19937;-69
2023/05/09 05:08:25;;;;;;;;;;;14.50;99.90;;;;;;5070487;28;20055;-69
2023/05/09 05:10:50;;;;;;;;;;;14.60;99.90;;;;;;5070787;28;20007;-68
2023/05/09 05:13:16;;;;;;;;;;;14.60;99.90;;;;;;5068710;28;20386;-69
2023/05/09 05:15:42;;;;;;;;;;;14.60;99.90;;;;;;5072267;28;19924;-69
2023/05/09 05:18:07;;;;;;;;;;;14.70;99.90;;;;;;5073145;28;20293;-69
2023/05/09 05:20:33;;;;;;;;;;;14.70;99.90;;;;;;5070402;28;19925;-70
2023/05/09 05:22:58;;;;;;;;;;;14.80;99.90;;;;;;5072654;28;20007;-70
2023/05/09 05:25:24;;;;;;;;;;;14.80;99.90;;;;;;5054384;28;19932;-69
2023/05/09 05:27:50;;;;;;;;;;;14.80;99.90;;;;;;5072860;28;19973;-69
2023/05/09 05:30:15;;;;;;;;;;;14.90;99.90;;;;;;5050620;28;19925;-70
2023/05/09 05:32:42;;;;;;;;;;;14.90;99.90;;;;;;5054404;28;19933;-70
2023/05/09 05:35:10;;;;;;;;;;;14.90;99.90;;;;;;5068880;28;19932;-70
2023/05/09 05:37:36;;;;;;;;;;;14.90;99.90;;;;;;5069650;28;19924;-70
2023/05/09 05:40:02;;;;;;;;;;;14.90;99.90;;;;;;5072784;28;19931;-69
2023/05/09 05:42:27;;;;;;;;;;;14.90;99.90;;;;;;5054156;28;20302;-69
2023/05/09 05:44:53;;;;;;;;;;;14.90;99.90;;;;;;5073418;28;20263;-69
2023/05/09 05:47:19;;;;;;;;;;;14.90;99.90;;;;;;5058654;28;19925;-69
2023/05/09 05:49:44;;;;;;;;;;;14.90;99.90;;;;;;5071285;28;20022;-70
2023/05/09 05:52:10;;;;;;;;;;;14.90;99.90;;;;;;5072754;28;19929;-70
2023/05/09 05:54:35;;;;;;;;;;;14.90;99.90;;;;;;5072534;28;20352;-69
2023/05/09 05:57:01;;;;;;;;;;;14.90;99.90;;;;;;5072330;28;20002;-70
2023/05/09 05:59:26;;;;;;;;;;;14.90;99.90;;;;;;5072661;28;20012;-69
2023/05/09 06:01:52;;;;;;;;;;;14.90;99.90;;;;;;5072658;28;19929;-69
2023/05/09 06:04:17;;;;;;;;;;;14.90;99.90;;;;;;5037815;28;19963;-70
2023/05/09 06:06:43;;;;;;;;;;;14.90;99.90;;;;;;5070952;28;19933;-70
2023/05/09 06:09:08;;;;;;;;;;;14.90;99.90;;;;;;5054635;28;19924;-70
2023/05/09 06:11:34;;;;;;;;;;;14.90;99.90;;;;;;5067705;28;20412;-69
2023/05/09 06:13:59;;;;;;;;;;;14.90;99.90;;;;;;5072186;28;19925;-69
2023/05/09 06:16:25;;;;;;;;;;;14.90;99.90;;;;;;5071775;28;19975;-69
2023/05/09 06:18:51;;;;;;;;;;;14.90;99.90;;;;;;5072488;28;19973;-69
2023/05/09 06:21:17;;;;;;;;;;;14.90;99.90;;;;;;5065912;28;19925;-70
2023/05/09 06:23:42;;;;;;;;;;;14.90;99.90;;;;;;5071234;28;19924;-70
2023/05/09 06:26:08;;;;;;;;;;;15.00;99.90;;;;;;5072519;28;19924;-69
2023/05/09 06:28:34;;;;;;;;;;;15.00;99.90;;;;;;5072135;28;19925;-70
2023/05/09 06:31:00;;;;;;;;;;;15.00;99.90;;;;;;5067975;28;19925;-70
2023/05/09 06:33:25;;;;;;;;;;;15.10;99.90;;;;;;5072146;28;20390;-69
2023/05/09 06:35:51;;;;;;;;;;;15.20;99.90;;;;;;5053159;28;20018;-70
2023/05/09 06:38:16;;;;;;;;;;;15.20;99.90;;;;;;5054150;28;20054;-70
2023/05/09 06:40:42;;;;;;;;;;;15.20;99.90;;;;;;5071858;28;19924;-69
2023/05/09 06:43:08;;;;;;;;;;;15.20;99.90;;;;;;5048206;28;20412;-69
2023/05/09 06:45:34;;;;;;;;;;;15.10;99.90;;;;;;5059258;28;19925;-70
2023/05/09 06:47:59;;;;;;;;;;;15.20;99.90;;;;;;5058035;28;19976;-69
2023/05/09 06:50:25;;;;;;;;;;;15.20;99.90;;;;;;5067681;28;20011;-70
2023/05/09 06:52:50;;;;;;;;;;;15.30;99.90;;;;;;5075063;28;20005;-69
2023/05/09 06:55:16;;;;;;;;;;;15.30;99.90;;;;;;5075769;28;19970;-69
2023/05/09 06:57:41;;;;;;;;;;;15.30;99.90;;;;;;5075697;28;19924;-69
2023/05/09 07:00:08;;;;;;;;;;;15.30;99.90;;;;;;5071976;28;20419;-70
2023/05/09 07:02:33;;;;;;;;;;;15.30;99.90;;;;;;5074802;28;19931;-70
2023/05/09 07:04:59;;;;;;;;;;;15.30;99.90;;;;;;5075164;28;19925;-70
2023/05/09 07:07:25;;;;;;;;;;;15.30;99.90;;;;;;5074633;28;20075;-70
2023/05/09 07:09:50;;;;;;;;;;;15.30;99.90;;;;;;5074123;28;20286;-70
2023/05/09 07:12:16;;;;;;;;;;;15.30;99.90;;;;;;5063787;28;20023;-70
2023/05/09 07:14:42;;;;;;;;;;;15.30;99.90;;;;;;5067206;28;20015;-69
2023/05/09 07:17:07;;;;;;;;;;;15.30;99.90;;;;;;5056846;28;19960;-70
2023/05/09 07:19:33;;;;;;;;;;;15.40;99.90;;;;;;5062625;28;19924;-70
2023/05/09 07:22:01;;;;;;;;;;;15.40;99.90;;;;;;5066462;28;19993;-69
2023/05/09 07:24:27;;;;;;;;;;;15.40;99.90;;;;;;5057268;28;20409;-69
2023/05/09 07:26:52;;;;;;;;;;;15.40;99.90;;;;;;5072969;28;19925;-68
2023/05/09 07:29:21;;;;;;;;;;;15.40;99.90;;;;;;5040557;28;19932;-68
2023/05/09 07:31:46;;;;;;;;;;;15.40;99.90;;;;;;5033543;28;19925;-68
2023/05/09 07:34:12;;;;;;;;;;;15.40;99.90;;;;;;5067952;28;19978;-68
2023/05/09 07:36:38;;;;;;;;;;;15.40;99.90;;;;;;5073037;28;19925;-68
2023/05/09 07:39:03;;;;;;;;;;;15.50;99.90;;;;;;5075132;28;20007;-69
2023/05/09 07:41:30;;;;;;;;;;;15.50;99.90;;;;;;5074516;28;19930;-69
2023/05/09 07:43:55;;;;;;;;;;;15.60;99.90;;;;;;5074860;28;19940;-68
2023/05/09 07:46:21;;;;;;;;;;;15.60;99.90;;;;;;5075127;28;19924;-69
2023/05/09 07:48:46;;;;;;;;;;;15.70;99.90;;;;;;5064294;28;20263;-70
2023/05/09 07:51:12;;;;;;;;;;;15.70;99.90;;;;;;5062502;28;20374;-69
2023/05/09 07:53:37;;;;;;;;;;;15.80;99.90;;;;;;5055312;28;20007;-69
2023/05/09 07:56:05;;;;;;;;;;;15.90;99.90;;;;;;5054991;28;19925;-69
2023/05/09 07:58:32;;;;;;;;;;;15.90;99.90;;;;;;5070937;28;19924;-69
2023/05/09 08:00:57;;;;;;;;;;;16.00;99.90;;;;;;5074741;28;19940;-69
2023/05/09 08:03:23;;;;;;;;;;;15.90;99.90;;;;;;5054391;28;19925;-69
2023/05/09 08:05:51;;;;;;;;;;;15.90;99.90;;;;;;5054761;28;20023;-69
2023/05/09 08:08:17;;;;;;;;;;;15.90;99.90;;;;;;5054910;28;19925;-69
2023/05/09 08:10:42;;;;;;;;;;;15.90;99.90;;;;;;5054397;28;20268;-69
2023/05/09 08:13:08;;;;;;;;;;;15.90;99.90;;;;;;5054280;28;19925;-69
2023/05/09 08:15:33;;;;;;;;;;;15.90;99.90;;;;;;5063345;28;19931;-69
2023/05/09 08:17:59;;;;;;;;;;;16.00;99.90;;;;;;5073887;28;19998;-69
2023/05/09 08:20:24;;;;;;;;;;;16.00;99.90;;;;;;5073879;28;19924;-69
2023/05/09 08:22:50;;;;;;;;;;;16.10;99.90;;;;;;5064534;28;19928;-69
2023/05/09 08:25:17;;;;;;;;;;;16.10;99.90;;;;;;5054411;28;20267;-68
2023/05/09 08:27:44;;;;;;;;;;;16.10;99.90;;;;;;5035805;28;20144;-69
2023/05/09 08:30:10;;;;;;;;;;;16.10;99.90;;;;;;5064363;28;19924;-69
2023/05/09 08:32:35;;;;;;;;;;;16.10;99.90;;;;;;5051786;28;19954;-69
2023/05/09 08:35:01;;;;;;;;;;;16.10;99.90;;;;;;5073939;28;19924;-69
2023/05/09 08:37:27;;;;;;;;;;;16.20;99.90;;;;;;5073799;28;19929;-69
2023/05/09 08:39:53;;;;;;;;;;;16.20;99.90;;;;;;5065446;28;19978;-69
2023/05/09 08:42:21;;;;;;;;;;;16.20;99.90;;;;;;5053820;28;19924;-69
2023/05/09 08:44:47;;;;;;;;;;;16.30;99.90;;;;;;5052334;28;19924;-68
2023/05/09 08:47:12;;;;;;;;;;;16.30;99.90;;;;;;5060801;28;19982;-69
2023/05/09 08:49:39;;;;;;;;;;;16.30;99.90;;;;;;5073625;28;20036;-69
2023/05/09 08:52:04;;;;;;;;;;;16.30;99.90;;;;;;5073535;28;19924;-69
2023/05/09 08:54:30;;;;;;;;;;;16.40;99.90;;;;;;5066973;28;19932;-69
2023/05/09 08:56:56;;;;;;;;;;;16.40;99.90;;;;;;5053527;28;19925;-69
2023/05/09 08:59:22;;;;;;;;;;;16.40;99.90;;;;;;5053135;28;20279;-69
2023/05/09 09:01:48;;;;;;;;;;;16.50;99.90;;;;;;5060172;28;19976;-69
2023/05/09 09:04:13;;;;;;;;;;;16.50;99.90;;;;;;5072981;28;19924;-69
2023/05/09 09:06:39;;;;;;;;;;;16.50;99.90;;;;;;5072919;28;20370;-69
2023/05/09 09:09:07;;;;;;;;;;;16.60;99.90;;;;;;5073481;28;19928;-69
2023/05/09 09:11:33;;;;;;;;;;;16.60;99.90;;;;;;5071437;28;19928;-69
2023/05/09 09:14:00;;;;;;;;;;;16.70;99.90;;;;;;5058756;28;19977;-69
2023/05/09 09:16:27;;;;;;;;;;;16.80;99.90;;;;;;5068186;28;19978;-69
2023/05/09 09:18:53;;;;;;;;;;;16.90;99.90;;;;;;5073089;28;19924;-69
2023/05/09 09:21:19;;;;;;;;;;;17.00;99.90;;;;;;5072659;28;20354;-69
2023/05/09 09:23:46;;;;;;;;;;;17.10;99.90;;;;;;5072987;28;19970;-69
2023/05/09 09:26:12;;;;;;;;;;;17.10;99.90;;;;;;5055086;28;20398;-69
2023/05/09 09:28:38;;;;;;;;;;;17.10;99.90;;;;;;5068066;28;19925;-69
2023/05/09 09:31:18;;;;;;;;;;;17.00;99.90;;;;;;5071094;28;20487;-69
2023/05/09 09:33:43;;;;;;;;;;;17.00;99.90;;;;;;5056118;28;19975;-69
2023/05/09 09:36:09;;;;;;;;;;;17.00;99.90;;;;;;5068387;28;20011;-69
2023/05/09 09:38:39;;;;;;;;;;;17.10;99.90;;;;;;5073066;28;20328;-69
2023/05/09 09:41:04;;;;;;;;;;;17.10;99.90;;;;;;5062492;28;20034;-69
2023/05/09 09:43:30;;;;;;;;;;;17.30;99.90;;;;;;5052657;28;20717;-68
2023/05/09 09:45:56;;;;;;;;;;;17.30;99.90;;;;;;5052917;28;19925;-69
2023/05/09 09:48:25;;;;;;;;;;;17.30;99.90;;;;;;5066110;28;20337;-69
2023/05/09 09:50:55;;;;;;;;;;;17.30;99.90;;;;;;5052144;28;19924;-69
2023/05/09 09:53:22;;;;;;;;;;;17.20;99.90;;;;;;5047463;28;19931;-69
2023/05/09 09:55:51;;;;;;;;;;;17.20;99.90;;;;;;5052471;28;19947;-69
2023/05/09 09:58:17;;;;;;;;;;;17.20;99.90;;;;;;5053049;28;20007;-69
2023/05/09 10:00:44;;;;;;;;;;;17.20;99.90;;;;;;5056485;28;20371;-69
2023/05/09 10:03:15;;;;;;;;;;;17.20;99.90;;;;;;5054544;28;19925;-69
2023/05/09 10:05:40;;;;;;;;;;;17.10;99.90;;;;;;5071741;28;19982;-69
2023/05/09 10:08:09;;;;;;;;;;;17.00;99.90;;;;;;5072798;28;19968;-69
2023/05/09 10:10:36;;;;;;;;;;;17.00;99.90;;;;;;5072309;28;19947;-69
2023/05/09 10:13:02;;;;;;;;;;;17.00;99.90;;;;;;5072743;28;19947;-69
2023/05/09 10:15:30;;;;;;;;;;;17.10;99.90;;;;;;5074277;28;19939;-69
2023/05/09 10:17:56;;;;;;;;;;;17.10;99.90;;;;;;5075364;28;19928;-69
2023/05/09 10:20:22;;;;;;;;;;;17.20;99.90;;;;;;5072300;28;20015;-68
2023/05/09 10:22:49;;;;;;;;;;;17.30;99.90;;;;;;5057269;28;19967;-69
2023/05/09 10:25:19;;;;;;;;;;;17.30;99.90;;;;;;5056527;28;19931;-69
2023/05/09 10:27:45;;;;;;;;;;;17.30;99.90;;;;;;5065434;28;19931;-69
2023/05/09 10:30:16;;;;;;;;;;;17.40;99.90;;;;;;5058320;28;19932;-69
2023/05/09 10:32:51;;;;;;;;;;;17.50;99.90;;;;;;5075869;28;20034;-69
2023/05/09 10:35:18;;;;;;;;;;;17.60;99.90;;;;;;5075391;28;19927;-69
2023/05/09 10:37:44;;;;;;;;;;;17.70;99.90;;;;;;5058259;28;19932;-69
2023/05/09 10:40:13;;;;;;;;;;;17.80;99.90;;;;;;5044737;28;20369;-69
2023/05/09 10:42:42;;;;;;;;;;;18.00;99.90;;;;;;5038253;28;19925;-69
2023/05/09 10:45:09;;;;;;;;;;;18.00;99.90;;;;;;5072518;28;19947;-69
2023/05/09 10:47:35;;;;;;;;;;;18.00;99.90;;;;;;5076026;28;20018;-69
2023/05/09 10:50:01;;;;;;;;;;;18.10;99.90;;;;;;5075991;28;19931;-69
2023/05/09 10:52:33;;;;;;;;;;;18.20;99.90;;;;;;5050801;28;19931;-69
2023/05/09 10:55:02;;;;;;;;;;;18.40;99.90;;;;;;5054796;28;19925;-69
2023/05/09 10:57:29;;;;;;;;;;;18.50;99.90;;;;;;5038103;28;19925;-69
2023/05/09 10:59:55;;;;;;;;;;;18.60;99.90;;;;;;5065183;28;19986;-69
2023/05/09 11:02:22;;;;;;;;;;;18.70;99.90;;;;;;5041484;28;20015;-69
2023/05/09 11:05:08;;;;;;;;;;;18.60;99.90;;;;;;5075123;28;20367;-69
2023/05/09 11:07:33;;;;;;;;;;;18.60;99.90;;;;;;5067705;28;19929;-70
2023/05/09 11:10:09;;;;;;;;;;;18.50;99.90;;;;;;5055695;28;19925;-70
2023/05/09 11:12:51;;;;;;;;;;;18.50;99.90;;;;;;5037911;28;19929;-69
2023/05/09 11:15:17;;;;;;;;;;;18.50;99.90;;;;;;5055726;28;19932;-69
2023/05/09 11:17:42;;;;;;;;;;;18.50;99.90;;;;;;5054023;28;19925;-69
2023/05/09 11:20:08;;;;;;;;;;;18.50;99.90;;;;;;5067896;28;19982;-69
2023/05/09 11:22:40;;;;;;;;;;;18.50;99.90;;;;;;5067532;28;20011;-70
2023/05/09 11:25:10;;;;;;;;;;;18.50;99.90;;;;;;5074084;28;20409;-70
2023/05/09 11:27:45;;;;;;;;;;;18.40;99.90;;;;;;5071856;28;20019;-69
2023/05/09 11:30:13;;;;;;;;;;;18.40;99.90;;;;;;5056852;28;20023;-69
2023/05/09 11:32:44;;;;;;;;;;;18.40;99.90;;;;;;5070607;28;19925;-69
2023/05/09 11:35:14;;;;;;;;;;;18.40;99.90;;;;;;5058508;28;20007;-69
2023/05/09 11:38:09;;;;;;;;;;;18.40;99.90;;;;;;5053368;28;19928;-70
2023/05/09 11:40:34;;;;;;;;;;;18.30;99.90;;;;;;5041682;28;19932;-70
2023/05/09 11:43:00;;;;;;;;;;;18.20;99.90;;;;;;5055124;28;19925;-70
2023/05/09 11:45:26;;;;;;;;;;;18.10;99.90;;;;;;5068718;28;19947;-70
2023/05/09 11:47:52;;;;;;;;;;;18.10;99.90;;;;;;5075020;28;19928;-70
2023/05/09 11:50:19;;;;;;;;;;;18.20;99.90;;;;;;5065608;28;20015;-70
2023/05/09 11:52:46;;;;;;;;;;;18.20;99.90;;;;;;5066171;28;19925;-68
2023/05/09 11:55:12;;;;;;;;;;;18.40;99.90;;;;;;5057106;28;20019;-69
2023/05/09 11:57:39;;;;;;;;;;;18.50;99.90;;;;;;5073485;28;19928;-69
2023/05/09 12:00:05;;;;;;;;;;;18.60;99.90;;;;;;5074606;28;19924;-70
2023/05/09 12:02:33;;;;;;;;;;;18.70;99.90;;;;;;5056005;28;20305;-69
2023/05/09 12:05:07;;;;;;;;;;;18.90;99.90;;;;;;5055709;28;19924;-69
2023/05/09 12:07:33;;;;;;;;;;;19.00;99.90;;;;;;5074548;28;20006;-69
2023/05/09 12:10:01;;;;;;;;;;;19.10;99.90;;;;;;5074131;28;19924;-70
2023/05/09 12:12:26;;;;;;;;;;;19.20;99.90;;;;;;5074361;28;19928;-70
2023/05/09 12:14:52;;;;;;;;;;;19.30;99.90;;;;;;5074212;28;19931;-70
2023/05/09 12:17:18;;;;;;;;;;;19.30;99.90;;;;;;5074084;28;19925;-70
2023/05/09 12:19:43;;;;;;;;;;;19.40;99.90;;;;;;5072761;28;19930;-69
2023/05/09 12:22:09;;;;;;;;;;;19.40;99.90;;;;;;5055932;28;19925;-69
2023/05/09 12:24:36;;;;;;;;;;;19.40;99.90;;;;;;5072125;28;19928;-70
2023/05/09 12:27:01;;;;;;;;;;;19.40;99.90;;;;;;5073703;28;20466;-70
2023/05/09 12:29:29;;;;;;;;;;;19.40;99.90;;;;;;5073717;28;20023;-70
2023/05/09 12:31:55;;;;;;;;;;;19.50;99.90;;;;;;5069498;28;19959;-68
2023/05/09 12:34:20;;;;;;;;;;;19.50;99.90;;;;;;5073334;28;19925;-69
2023/05/09 12:36:52;;;;;;;;;;;19.60;99.90;;;;;;5069790;28;19924;-69
2023/05/09 12:39:20;;;;;;;;;;;19.60;99.90;;;;;;5070861;28;19924;-69
2023/05/09 12:41:49;;;;;;;;;;;19.70;99.90;;;;;;5074038;28;19924;-70
2023/05/09 12:44:21;;;;;;;;;;;19.60;99.90;;;;;;5072224;28;19925;-69
2023/05/09 12:46:57;;;;;;;;;;;19.60;99.90;;;;;;5073156;28;19924;-70
2023/05/09 12:49:24;;;;;;;;;;;19.50;99.90;;;;;;5071109;28;19968;-69
2023/05/09 12:51:51;;;;;;;;;;;19.50;99.90;;;;;;5070106;28;19928;-69
2023/05/09 12:54:24;;;;;;;;;;;19.60;99.90;;;;;;5072388;28;20416;-69
2023/05/09 12:56:55;;;;;;;;;;;19.60;99.90;;;;;;5071556;28;19924;-69
2023/05/09 12:59:22;;;;;;;;;;;19.60;99.90;;;;;;5053650;28;19925;-69
2023/05/09 13:01:53;;;;;;;;;;;19.60;99.90;;;;;;5053538;28;20013;-69
2023/05/09 13:04:18;;;;;;;;;;;19.70;99.90;;;;;;5071925;28;19940;-69
2023/05/09 13:06:48;;;;;;;;;;;19.70;99.90;;;;;;5069749;28;19925;-68
2023/05/09 13:09:14;;;;;;;;;;;19.70;99.90;;;;;;5073517;28;20476;-69
2023/05/09 13:11:40;;;;;;;;;;;19.80;99.90;;;;;;5052009;28;19925;-69
2023/05/09 13:14:07;;;;;;;;;;;19.70;99.90;;;;;;5072197;28;20412;-68
2023/05/09 13:16:33;;;;;;;;;;;19.70;99.90;;;;;;5071487;28;19940;-68
2023/05/09 13:19:00;;;;;;;;;;;19.60;99.90;;;;;;5073072;28;19981;-68
2023/05/09 13:21:26;;;;;;;;;;;19.50;99.90;;;;;;5055444;28;19925;-69
2023/05/09 13:23:51;;;;;;;;;;;19.50;99.90;;;;;;5054266;28;19924;-68
2023/05/09 13:26:17;;;;;;;;;;;19.40;99.90;;;;;;5069133;28;19940;-69
2023/05/09 13:28:42;;;;;;;;;;;19.30;99.90;;;;;;5071536;28;20027;-69
2023/05/09 13:31:08;;;;;;;;;;;19.20;99.90;;;;;;5036037;28;20011;-69
2023/05/09 13:33:33;;;;;;;;;;;19.10;99.90;;;;;;5071413;28;19990;-69
2023/05/09 13:35:59;;;;;;;;;;;19.00;99.90;;;;;;5071767;28;19924;-69
2023/05/09 13:38:25;;;;;;;;;;;19.00;99.90;;;;;;5070714;28;20350;-69
2023/05/09 13:40:50;;;;;;;;;;;18.90;99.90;;;;;;5071622;28;19931;-69
2023/05/09 13:43:15;;;;;;;;;;;18.80;99.90;;;;;;5067449;28;19924;-69
2023/05/09 13:45:41;;;;;;;;;;;18.70;99.90;;;;;;5071471;28;19928;-69
2023/05/09 13:48:06;;;;;;;;;;;18.70;99.90;;;;;;5071060;28;19964;-69
2023/05/09 13:50:32;;;;;;;;;;;18.70;99.90;;;;;;5071537;28;20023;-69
2023/05/09 13:52:58;;;;;;;;;;;18.60;99.90;;;;;;5071217;28;19956;-70
2023/05/09 13:55:25;;;;;;;;;;;18.50;99.90;;;;;;5063204;28;19924;-69
2023/05/09 13:57:50;;;;;;;;;;;18.40;99.90;;;;;;5070901;28;19925;-69
2023/05/09 14:00:16;;;;;;;;;;;18.40;99.90;;;;;;5069694;28;19932;-69
2023/05/09 14:02:42;;;;;;;;;;;18.30;99.90;;;;;;5071949;28;19931;-69
2023/05/09 14:05:08;;;;;;;;;;;18.30;99.90;;;;;;5070276;28;19991;-69
2023/05/09 14:07:33;;;;;;;;;;;18.30;99.90;;;;;;5075082;28;20293;-70
2023/05/09 14:10:00;;;;;;;;;;;18.30;99.90;;;;;;5063191;28;19925;-69
2023/05/09 14:12:26;;;;;;;;;;;18.20;99.90;;;;;;5058963;28;19974;-69